Time,TemperatureF,DewpointF,PressureIn,WindDirection,WindDirectionDegrees,WindSpeedMPH,WindSpeedGustMPH,Humidity,HourlyPrecipIn,Conditions,Clouds,dailyrainin,SoftwareType,DateUTC
2013-08-21 00:01:00,63.2,62.3,30.16,NNE,21,1.0,2.0,97,0.00,,,0.00,WUHU216DAVISVP2,2013-08-21 04:01:00,
2013-08-21 00:06:00,63.0,61.8,30.16,NNE,21,0.0,2.0,96,0.00,,,0.00,WUHU216DAVISVP2,2013-08-21 04:06:00,
2013-08-21 00:11:00,62.9,62.0,30.16,NNE,21,0.0,2.0,97,0.00,,,0.00,WUHU216DAVISVP2,2013-08-21 04:11:00,
2013-08-21 00:16:00,62.8,61.9,30.16,NNE,20,2.0,2.0,97,0.00,,,0.00,WUHU216DAVISVP2,2013-08-21 04:16:00,
2013-08-21 00:21:00,62.7,61.8,30.16,NNE,21,0.0,2.0,97,0.00,,,0.00,WUHU216DAVISVP2,2013-08-21 04:21:00,
2013-08-21 00:26:00,62.7,61.8,30.16,NNE,20,0.0,2.0,97,0.00,,,0.00,WUHU216DAVISVP2,2013-08-21 04:26:00,
2013-08-21 00:31:00,62.6,61.7,30.16,NNE,20,0.0,2.0,97,0.00,,,0.00,WUHU216DAVISVP2,2013-08-21 04:31:00,
2013-08-21 00:36:00,62.5,61.6,30.16,NNE,21,1.0,2.0,97,0.00,,,0.00,WUHU216DAVISVP2,2013-08-21 04:36:00,
2013-08-21 00:41:00,62.4,61.5,30.17,NNE,21,0.0,2.0,97,0.00,,,0.00,WUHU216DAVISVP2,2013-08-21 04:41:00,
2013-08-21 00:46:00,62.2,61.0,30.17,NNE,21,0.0,2.0,96,0.00,,,0.00,WUHU216DAVISVP2,2013-08-21 04:46:00,
2013-08-21 00:51:00,62.1,61.2,30.16,NNE,21,0.0,2.0,97,0.00,,,0.00,WUHU216DAVISVP2,2013-08-21 04:51:00,
2013-08-21 00:56:00,62.0,60.8,30.17,NNE,21,0.0,2.0,96,0.00,,,0.00,WUHU216DAVISVP2,2013-08-21 04:56:00,
2013-08-21 01:01:00,61.8,60.6,30.16,NNE,21,2.0,3.0,96,0.00,,,0.00,WUHU216DAVISVP2,2013-08-21 05:01:00,
2013-08-21 01:06:00,61.5,60.3,30.16,NNE,31,2.0,3.0,96,0.00,,,0.00,WUHU216DAVISVP2,2013-08-21 05:06:00,
2013-08-21 01:11:00,61.4,60.2,30.17,NNE,31,0.0,3.0,96,0.00,,,0.00,WUHU216DAVISVP2,2013-08-21 05:11:00,
2013-08-21 01:16:00,61.3,60.4,30.16,NNE,31,0.0,3.0,97,0.00,,,0.00,WUHU216DAVISVP2,2013-08-21 05:16:00,
2013-08-21 01:21:00,61.3,60.4,30.16,NNE,31,0.0,3.0,97,0.00,,,0.00,WUHU216DAVISVP2,2013-08-21 05:21:00,
2013-08-21 01:26:00,61.3,60.4,30.17,NNE,31,0.0,3.0,97,0.00,,,0.00,WUHU216DAVISVP2,2013-08-21 05:26:00,
2013-08-21 01:31:00,61.3,60.4,30.17,NNE,31,0.0,3.0,97,0.00,,,0.00,WUHU216DAVISVP2,2013-08-21 05:31:00,
2013-08-21 01:36:00,61.4,60.5,30.17,NNE,31,0.0,1.0,97,0.00,,,0.00,WUHU216DAVISVP2,2013-08-21 05:36:00,
2013-08-21 01:41:00,61.4,60.5,30.16,NNE,31,0.0,1.0,97,0.00,,,0.00,WUHU216DAVISVP2,2013-08-21 05:41:00,
2013-08-21 01:46:00,61.4,60.5,30.17,NNE,31,0.0,1.0,97,0.00,,,0.00,WUHU216DAVISVP2,2013-08-21 05:46:00,
2013-08-21 01:51:00,61.5,60.6,30.17,NNE,31,1.0,1.0,97,0.00,,,0.00,WUHU216DAVISVP2,2013-08-21 05:51:00,
2013-08-21 01:56:00,61.5,60.6,30.17,NNE,31,0.0,2.0,97,0.00,,,0.00,WUHU216DAVISVP2,2013-08-21 05:56:00,
2013-08-21 02:01:00,61.5,60.9,30.16,NNE,31,1.0,2.0,98,0.00,,,0.00,WUHU216DAVISVP2,2013-08-21 06:01:00,
2013-08-21 02:06:00,61.5,60.6,30.16,NNE,31,0.0,3.0,97,0.00,,,0.00,WUHU216DAVISVP2,2013-08-21 06:06:00,
2013-08-21 02:11:00,61.5,60.9,30.16,NNE,31,1.0,3.0,98,0.00,,,0.00,WUHU216DAVISVP2,2013-08-21 06:11:00,
2013-08-21 02:16:00,61.4,60.5,30.16,NNE,31,0.0,3.0,97,0.00,,,0.00,WUHU216DAVISVP2,2013-08-21 06:16:00,
2013-08-21 02:21:00,61.3,60.4,30.16,NE,36,1.0,4.0,97,0.00,,,0.00,WUHU216DAVISVP2,2013-08-21 06:21:00,
2013-08-21 02:26:00,61.2,60.3,30.16,NE,38,0.0,4.0,97,0.00,,,0.00,WUHU216DAVISVP2,2013-08-21 06:26:00,
2013-08-21 02:31:00,61.2,60.3,30.16,NE,38,0.0,4.0,97,0.00,,,0.00,WUHU216DAVISVP2,2013-08-21 06:31:00,
2013-08-21 02:36:00,61.1,60.2,30.16,NE,38,0.0,4.0,97,0.00,,,0.00,WUHU216DAVISVP2,2013-08-21 06:36:00,
2013-08-21 02:41:00,61.1,60.2,30.16,NE,38,0.0,3.0,97,0.00,,,0.00,WUHU216DAVISVP2,2013-08-21 06:41:00,
2013-08-21 02:46:00,61.1,60.5,30.16,NE,38,0.0,3.0,98,0.00,,,0.00,WUHU216DAVISVP2,2013-08-21 06:46:00,
2013-08-21 02:51:00,61.1,60.5,30.16,East,88,1.0,3.0,98,0.00,,,0.00,WUHU216DAVISVP2,2013-08-21 06:51:00,
2013-08-21 02:56:00,61.1,60.5,30.16,ENE,66,2.0,4.0,98,0.00,,,0.00,WUHU216DAVISVP2,2013-08-21 06:56:00,
2013-08-21 03:01:00,60.9,60.3,30.16,East,91,5.0,5.0,98,0.00,,,0.00,WUHU216DAVISVP2,2013-08-21 07:01:00,
2013-08-21 03:06:00,60.8,60.2,30.16,ENE,77,0.0,5.0,98,0.00,,,0.00,WUHU216DAVISVP2,2013-08-21 07:06:00,
2013-08-21 03:11:00,60.8,60.2,30.16,ENE,70,0.0,5.0,98,0.00,,,0.00,WUHU216DAVISVP2,2013-08-21 07:11:00,
2013-08-21 03:16:00,60.7,60.1,30.16,ENE,77,0.0,5.0,98,0.00,,,0.00,WUHU216DAVISVP2,2013-08-21 07:16:00,
2013-08-21 03:21:00,60.7,60.1,30.16,ENE,77,0.0,5.0,98,0.00,,,0.00,WUHU216DAVISVP2,2013-08-21 07:21:00,
2013-08-21 03:26:00,60.7,60.1,30.16,ENE,77,0.0,3.0,98,0.00,,,0.00,WUHU216DAVISVP2,2013-08-21 07:26:00,
2013-08-21 03:31:00,60.7,60.1,30.16,ENE,78,0.0,3.0,98,0.00,,,0.00,WUHU216DAVISVP2,2013-08-21 07:31:00,
2013-08-21 03:36:00,60.6,60.0,30.16,East,79,0.0,3.0,98,0.00,,,0.00,WUHU216DAVISVP2,2013-08-21 07:36:00,
2013-08-21 03:41:00,60.5,59.9,30.16,East,79,0.0,3.0,98,0.00,,,0.00,WUHU216DAVISVP2,2013-08-21 07:41:00,
2013-08-21 03:46:00,60.5,59.9,30.16,ENE,78,0.0,3.0,98,0.00,,,0.00,WUHU216DAVISVP2,2013-08-21 07:46:00,
2013-08-21 03:51:00,60.5,59.9,30.16,ENE,78,0.0,2.0,98,0.00,,,0.00,WUHU216DAVISVP2,2013-08-21 07:51:00,
2013-08-21 03:56:00,60.5,59.9,30.16,ENE,78,0.0,2.0,98,0.00,,,0.00,WUHU216DAVISVP2,2013-08-21 07:56:00,
2013-08-21 04:01:00,60.5,59.9,30.16,ENE,78,0.0,3.0,98,0.00,,,0.00,WUHU216DAVISVP2,2013-08-21 08:01:00,
2013-08-21 04:06:00,60.4,59.8,30.16,ENE,78,0.0,3.0,98,0.00,,,0.00,WUHU216DAVISVP2,2013-08-21 08:06:00,
2013-08-21 04:11:00,60.3,59.7,30.16,ENE,75,1.0,3.0,98,0.00,,,0.00,WUHU216DAVISVP2,2013-08-21 08:11:00,
2013-08-21 04:16:00,60.1,59.5,30.16,NE,50,0.0,3.0,98,0.00,,,0.00,WUHU216DAVISVP2,2013-08-21 08:16:00,
2013-08-21 04:21:00,59.9,59.3,30.16,NE,50,0.0,3.0,98,0.00,,,0.00,WUHU216DAVISVP2,2013-08-21 08:21:00,
2013-08-21 04:26:00,59.9,59.3,30.16,NE,51,0.0,3.0,98,0.00,,,0.00,WUHU216DAVISVP2,2013-08-21 08:26:00,
2013-08-21 04:31:00,59.8,59.2,30.16,NE,52,1.0,3.0,98,0.00,,,0.00,WUHU216DAVISVP2,2013-08-21 08:31:00,
2013-08-21 04:36:00,59.6,59.0,30.16,NE,51,0.0,3.0,98,0.00,,,0.00,WUHU216DAVISVP2,2013-08-21 08:36:00,
2013-08-21 04:41:00,59.7,59.1,30.16,NE,51,1.0,3.0,98,0.00,,,0.00,WUHU216DAVISVP2,2013-08-21 08:41:00,
2013-08-21 04:46:00,59.7,59.1,30.16,NE,51,0.0,3.0,98,0.00,,,0.00,WUHU216DAVISVP2,2013-08-21 08:46:00,
2013-08-21 04:51:00,59.7,59.1,30.16,NE,51,1.0,3.0,98,0.00,,,0.00,WUHU216DAVISVP2,2013-08-21 08:51:00,
2013-08-21 04:56:00,59.7,59.1,30.16,NE,52,1.0,2.0,98,0.00,,,0.00,WUHU216DAVISVP2,2013-08-21 08:56:00,
2013-08-21 05:01:00,59.7,59.1,30.16,NE,52,0.0,2.0,98,0.00,,,0.00,WUHU216DAVISVP2,2013-08-21 09:01:00,
2013-08-21 05:06:00,59.7,59.1,30.16,NE,52,0.0,2.0,98,0.00,,,0.00,WUHU216DAVISVP2,2013-08-21 09:06:00,
2013-08-21 05:11:00,59.6,59.0,30.17,NE,50,0.0,2.0,98,0.00,,,0.00,WUHU216DAVISVP2,2013-08-21 09:11:00,
2013-08-21 05:16:00,59.6,59.0,30.17,NE,54,0.0,3.0,98,0.00,,,0.00,WUHU216DAVISVP2,2013-08-21 09:16:00,
2013-08-21 05:21:00,59.6,59.0,30.16,NE,54,0.0,3.0,98,0.00,,,0.00,WUHU216DAVISVP2,2013-08-21 09:21:00,
2013-08-21 05:26:00,59.7,59.1,30.17,NE,54,1.0,3.0,98,0.00,,,0.00,WUHU216DAVISVP2,2013-08-21 09:26:00,
2013-08-21 05:31:00,59.6,59.0,30.17,NE,55,0.0,3.0,98,0.00,,,0.00,WUHU216DAVISVP2,2013-08-21 09:31:00,
2013-08-21 05:36:00,59.6,59.0,30.17,ENE,62,0.0,2.0,98,0.00,,,0.00,WUHU216DAVISVP2,2013-08-21 09:36:00,
2013-08-21 05:41:00,59.6,59.0,30.17,ENE,62,0.0,2.0,98,0.00,,,0.00,WUHU216DAVISVP2,2013-08-21 09:41:00,
2013-08-21 05:46:00,59.5,58.9,30.17,East,81,2.0,4.0,98,0.00,,,0.00,WUHU216DAVISVP2,2013-08-21 09:46:00,
2013-08-21 05:51:00,59.5,58.9,30.17,East,81,3.0,4.0,98,0.00,,,0.00,WUHU216DAVISVP2,2013-08-21 09:51:00,
2013-08-21 05:56:00,59.4,59.1,30.17,East,81,1.0,4.0,99,0.00,,,0.00,WUHU216DAVISVP2,2013-08-21 09:56:00,
2013-08-21 06:01:00,59.4,59.1,30.17,East,81,0.0,4.0,99,0.00,,,0.00,WUHU216DAVISVP2,2013-08-21 10:01:00,
2013-08-21 06:06:00,59.3,59.0,30.17,East,81,0.0,3.0,99,0.00,,,0.00,WUHU216DAVISVP2,2013-08-21 10:06:00,
2013-08-21 06:11:00,59.2,58.9,30.17,East,81,2.0,3.0,99,0.00,,,0.00,WUHU216DAVISVP2,2013-08-21 10:11:00,
2013-08-21 06:16:00,59.1,58.5,30.17,East,81,0.0,3.0,98,0.00,,,0.00,WUHU216DAVISVP2,2013-08-21 10:16:00,
2013-08-21 06:21:00,58.9,58.3,30.17,East,81,0.0,3.0,98,0.00,,,0.00,WUHU216DAVISVP2,2013-08-21 10:21:00,
2013-08-21 06:26:00,59.0,58.4,30.17,East,81,0.0,3.0,98,0.00,,,0.00,WUHU216DAVISVP2,2013-08-21 10:26:00,
2013-08-21 06:31:00,59.0,58.4,30.17,East,81,0.0,2.0,98,0.00,,,0.00,WUHU216DAVISVP2,2013-08-21 10:31:00,
2013-08-21 06:36:00,59.0,58.7,30.17,East,81,0.0,2.0,99,0.00,,,0.00,WUHU216DAVISVP2,2013-08-21 10:36:00,
2013-08-21 06:41:00,58.9,58.3,30.18,East,81,0.0,3.0,98,0.00,,,0.00,WUHU216DAVISVP2,2013-08-21 10:41:00,
2013-08-21 06:46:00,58.9,58.3,30.18,East,79,1.0,3.0,98,0.00,,,0.00,WUHU216DAVISVP2,2013-08-21 10:46:00,
2013-08-21 06:51:00,58.8,58.5,30.18,ENE,77,0.0,3.0,99,0.00,,,0.00,WUHU216DAVISVP2,2013-08-21 10:51:00,
2013-08-21 06:56:00,58.8,58.5,30.18,ENE,77,0.0,3.0,99,0.00,,,0.00,WUHU216DAVISVP2,2013-08-21 10:56:00,
2013-08-21 07:01:00,58.8,58.5,30.18,ENE,77,0.0,3.0,99,0.00,,,0.00,WUHU216DAVISVP2,2013-08-21 11:01:00,
2013-08-21 07:06:00,58.8,58.5,30.18,ENE,77,1.0,3.0,99,0.00,,,0.00,WUHU216DAVISVP2,2013-08-21 11:06:00,
2013-08-21 07:11:00,58.9,58.6,30.18,ENE,77,0.0,2.0,99,0.00,,,0.00,WUHU216DAVISVP2,2013-08-21 11:11:00,
2013-08-21 07:16:00,58.9,58.6,30.18,ENE,77,0.0,2.0,99,0.00,,,0.00,WUHU216DAVISVP2,2013-08-21 11:16:00,
2013-08-21 07:21:00,58.9,58.6,30.18,ENE,74,0.0,2.0,99,0.00,,,0.00,WUHU216DAVISVP2,2013-08-21 11:21:00,
2013-08-21 07:26:00,58.9,58.6,30.18,ENE,73,0.0,2.0,99,0.00,,,0.00,WUHU216DAVISVP2,2013-08-21 11:26:00,
2013-08-21 07:31:00,58.9,58.6,30.19,ENE,73,1.0,2.0,99,0.00,,,0.00,WUHU216DAVISVP2,2013-08-21 11:31:00,
2013-08-21 07:36:00,58.9,58.6,30.19,ENE,74,0.0,3.0,99,0.00,,,0.00,WUHU216DAVISVP2,2013-08-21 11:36:00,
2013-08-21 07:41:00,59.0,58.7,30.19,ENE,73,0.0,3.0,99,0.00,,,0.00,WUHU216DAVISVP2,2013-08-21 11:41:00,
2013-08-21 07:46:00,59.1,58.8,30.19,ENE,73,0.0,3.0,99,0.00,,,0.00,WUHU216DAVISVP2,2013-08-21 11:46:00,
2013-08-21 07:51:00,59.2,58.9,30.19,ENE,73,0.0,3.0,99,0.00,,,0.00,WUHU216DAVISVP2,2013-08-21 11:51:00,
2013-08-21 07:56:00,59.2,58.9,30.19,ENE,73,0.0,3.0,99,0.00,,,0.00,WUHU216DAVISVP2,2013-08-21 11:56:00,
2013-08-21 08:01:00,59.2,58.9,30.19,ENE,73,0.0,3.0,99,0.00,,,0.00,WUHU216DAVISVP2,2013-08-21 12:01:00,
2013-08-21 08:06:00,59.3,59.0,30.19,ENE,73,1.0,3.0,99,0.00,,,0.00,WUHU216DAVISVP2,2013-08-21 12:06:00,
2013-08-21 08:11:00,59.3,59.0,30.19,ENE,73,0.0,2.0,99,0.00,,,0.00,WUHU216DAVISVP2,2013-08-21 12:11:00,
2013-08-21 08:16:00,59.2,58.9,30.19,ENE,73,2.0,2.0,99,0.00,,,0.00,WUHU216DAVISVP2,2013-08-21 12:16:00,
2013-08-21 08:21:00,59.2,58.9,30.19,ENE,73,1.0,2.0,99,0.00,,,0.00,WUHU216DAVISVP2,2013-08-21 12:21:00,
2013-08-21 08:26:00,59.3,59.0,30.20,ENE,73,0.0,2.0,99,0.00,,,0.00,WUHU216DAVISVP2,2013-08-21 12:26:00,
2013-08-21 08:31:00,59.2,58.9,30.20,ENE,73,1.0,3.0,99,0.00,,,0.00,WUHU216DAVISVP2,2013-08-21 12:31:00,
2013-08-21 08:36:00,59.3,59.0,30.20,ENE,73,0.0,3.0,99,0.00,,,0.00,WUHU216DAVISVP2,2013-08-21 12:36:00,
2013-08-21 08:41:00,59.2,58.9,30.20,ENE,73,0.0,3.0,99,0.00,,,0.00,WUHU216DAVISVP2,2013-08-21 12:41:00,
2013-08-21 08:46:00,59.3,59.0,30.20,ENE,73,1.0,3.0,99,0.00,,,0.00,WUHU216DAVISVP2,2013-08-21 12:46:00,
2013-08-21 08:51:00,59.3,59.0,30.20,ENE,73,2.0,3.0,99,0.00,,,0.00,WUHU216DAVISVP2,2013-08-21 12:51:00,
2013-08-21 08:56:00,59.3,59.0,30.20,NE,52,2.0,4.0,99,0.00,,,0.00,WUHU216DAVISVP2,2013-08-21 12:56:00,
2013-08-21 09:01:00,59.3,59.0,30.19,NE,52,2.0,4.0,99,0.00,,,0.00,WUHU216DAVISVP2,2013-08-21 13:01:00,
2013-08-21 09:06:00,59.3,59.0,30.19,NE,52,0.0,4.0,99,0.00,,,0.00,WUHU216DAVISVP2,2013-08-21 13:06:00,
2013-08-21 09:11:00,59.6,59.3,30.19,NE,52,0.0,3.0,99,0.00,,,0.00,WUHU216DAVISVP2,2013-08-21 13:11:00,
2013-08-21 09:16:00,59.9,59.6,30.19,NE,52,0.0,3.0,99,0.00,,,0.00,WUHU216DAVISVP2,2013-08-21 13:16:00,
2013-08-21 09:21:00,59.8,59.5,30.19,NE,52,0.0,3.0,99,0.00,,,0.00,WUHU216DAVISVP2,2013-08-21 13:21:00,
2013-08-21 09:26:00,59.8,59.5,30.19,NE,52,0.0,3.0,99,0.00,,,0.00,WUHU216DAVISVP2,2013-08-21 13:26:00,
2013-08-21 09:31:00,60.0,59.7,30.19,NE,52,0.0,3.0,99,0.00,,,0.00,WUHU216DAVISVP2,2013-08-21 13:31:00,
2013-08-21 09:36:00,60.2,59.9,30.19,NE,52,0.0,3.0,99,0.00,,,0.00,WUHU216DAVISVP2,2013-08-21 13:36:00,
2013-08-21 09:41:00,60.5,60.2,30.19,NE,52,0.0,3.0,99,0.00,,,0.00,WUHU216DAVISVP2,2013-08-21 13:41:00,
2013-08-21 09:46:00,60.8,60.5,30.19,SE,139,1.0,3.0,99,0.00,,,0.00,WUHU216DAVISVP2,2013-08-21 13:46:00,
2013-08-21 09:51:00,61.0,60.7,30.19,SSE,163,0.0,3.0,99,0.00,,,0.00,WUHU216DAVISVP2,2013-08-21 13:51:00,
2013-08-21 09:56:00,61.4,61.1,30.19,ESE,106,2.0,3.0,99,0.00,,,0.00,WUHU216DAVISVP2,2013-08-21 13:56:00,
2013-08-21 10:01:00,61.6,61.0,30.18,ESE,102,0.0,3.0,98,0.00,,,0.00,WUHU216DAVISVP2,2013-08-21 14:01:00,
2013-08-21 10:06:00,61.8,60.9,30.19,ESE,102,0.0,3.0,97,0.00,,,0.00,WUHU216DAVISVP2,2013-08-21 14:06:00,
2013-08-21 10:11:00,62.3,61.7,30.19,ESE,102,0.0,3.0,98,0.00,,,0.00,WUHU216DAVISVP2,2013-08-21 14:11:00,
2013-08-21 10:16:00,62.7,61.8,30.19,ESE,102,0.0,2.0,97,0.00,,,0.00,WUHU216DAVISVP2,2013-08-21 14:16:00,
2013-08-21 10:21:00,62.9,61.7,30.19,ESE,102,1.0,1.0,96,0.00,,,0.00,WUHU216DAVISVP2,2013-08-21 14:21:00,
2013-08-21 10:26:00,63.6,62.4,30.19,East,101,1.0,2.0,96,0.00,,,0.00,WUHU216DAVISVP2,2013-08-21 14:26:00,
2013-08-21 10:31:00,64.3,62.8,30.18,East,91,2.0,3.0,95,0.00,,,0.00,WUHU216DAVISVP2,2013-08-21 14:31:00,
2013-08-21 10:36:00,64.9,63.4,30.18,East,89,1.0,3.0,95,0.00,,,0.00,WUHU216DAVISVP2,2013-08-21 14:36:00,
2013-08-21 10:41:00,65.4,63.3,30.18,East,90,0.0,3.0,93,0.00,,,0.00,WUHU216DAVISVP2,2013-08-21 14:41:00,
2013-08-21 10:46:00,66.0,63.9,30.18,East,90,0.0,3.0,93,0.00,,,0.00,WUHU216DAVISVP2,2013-08-21 14:46:00,
2013-08-21 10:51:00,66.7,63.7,30.18,East,90,0.0,3.0,90,0.00,,,0.00,WUHU216DAVISVP2,2013-08-21 14:51:00,
2013-08-21 10:56:00,67.5,64.1,30.17,East,90,0.0,3.0,89,0.00,,,0.00,WUHU216DAVISVP2,2013-08-21 14:56:00,
2013-08-21 11:01:00,68.2,64.8,30.17,East,87,0.0,3.0,89,0.00,,,0.00,WUHU216DAVISVP2,2013-08-21 15:01:00,
2013-08-21 11:06:00,68.9,64.6,30.17,NNE,27,0.0,3.0,86,0.00,,,0.00,WUHU216DAVISVP2,2013-08-21 15:06:00,
2013-08-21 11:11:00,69.4,65.7,30.17,West,278,0.0,3.0,88,0.00,,,0.00,WUHU216DAVISVP2,2013-08-21 15:11:00,
2013-08-21 11:16:00,69.7,65.3,30.17,West,278,0.0,3.0,86,0.00,,,0.00,WUHU216DAVISVP2,2013-08-21 15:16:00,
2013-08-21 11:21:00,70.3,66.6,30.17,West,263,0.0,3.0,88,0.00,,,0.00,WUHU216DAVISVP2,2013-08-21 15:21:00,
2013-08-21 11:26:00,70.8,67.1,30.17,West,263,1.0,3.0,88,0.00,,,0.00,WUHU216DAVISVP2,2013-08-21 15:26:00,
2013-08-21 11:31:00,71.4,67.0,30.17,West,264,0.0,2.0,86,0.00,,,0.00,WUHU216DAVISVP2,2013-08-21 15:31:00,
2013-08-21 11:36:00,72.0,67.3,30.16,WSW,247,1.0,2.0,85,0.00,,,0.00,WUHU216DAVISVP2,2013-08-21 15:36:00,
2013-08-21 11:41:00,72.8,67.7,30.16,WSW,246,1.0,2.0,84,0.00,,,0.00,WUHU216DAVISVP2,2013-08-21 15:41:00,
2013-08-21 11:46:00,73.6,68.5,30.16,WSW,248,1.0,3.0,84,0.00,,,0.00,WUHU216DAVISVP2,2013-08-21 15:46:00,
2013-08-21 11:51:00,74.3,68.5,30.16,WSW,243,1.0,3.0,82,0.00,,,0.00,WUHU216DAVISVP2,2013-08-21 15:51:00,
2013-08-21 11:56:00,75.1,69.0,30.15,SW,231,2.0,3.0,81,0.00,,,0.00,WUHU216DAVISVP2,2013-08-21 15:56:00,
2013-08-21 12:01:00,75.9,70.1,30.15,SW,231,0.0,3.0,82,0.00,,,0.00,WUHU216DAVISVP2,2013-08-21 16:01:00,
2013-08-21 12:06:00,76.6,70.8,30.15,SW,226,0.0,3.0,82,0.00,,,0.00,WUHU216DAVISVP2,2013-08-21 16:06:00,
2013-08-21 12:11:00,77.2,71.0,30.15,SSW,204,0.0,3.0,81,0.00,,,0.00,WUHU216DAVISVP2,2013-08-21 16:11:00,
2013-08-21 12:16:00,77.8,70.4,30.15,WSW,251,0.0,3.0,78,0.00,,,0.00,WUHU216DAVISVP2,2013-08-21 16:16:00,
2013-08-21 12:21:00,78.3,69.7,30.15,WSW,253,0.0,3.0,75,0.00,,,0.00,WUHU216DAVISVP2,2013-08-21 16:21:00,
2013-08-21 12:26:00,79.1,70.1,30.15,WSW,255,2.0,3.0,74,0.00,,,0.00,WUHU216DAVISVP2,2013-08-21 16:26:00,
2013-08-21 12:31:00,79.7,69.9,30.14,WSW,250,0.0,3.0,72,0.00,,,0.00,WUHU216DAVISVP2,2013-08-21 16:31:00,
2013-08-21 12:36:00,80.1,70.5,30.14,WSW,250,1.0,3.0,72,0.00,,,0.00,WUHU216DAVISVP2,2013-08-21 16:36:00,
2013-08-21 12:41:00,80.5,70.4,30.14,NW,320,1.0,3.0,71,0.00,,,0.00,WUHU216DAVISVP2,2013-08-21 16:41:00,
2013-08-21 12:46:00,80.6,71.3,30.14,NW,322,0.0,3.0,73,0.00,,,0.00,WUHU216DAVISVP2,2013-08-21 16:46:00,
2013-08-21 12:51:00,80.9,70.8,30.13,NNW,340,3.0,3.0,71,0.00,,,0.00,WUHU216DAVISVP2,2013-08-21 16:51:00,
2013-08-21 12:56:00,81.1,71.4,30.13,NNW,332,2.0,4.0,72,0.00,,,0.00,WUHU216DAVISVP2,2013-08-21 16:56:00,
2013-08-21 13:01:00,81.4,70.9,30.13,NW,310,3.0,5.0,70,0.00,,,0.00,WUHU216DAVISVP2,2013-08-21 17:01:00,
2013-08-21 13:06:00,81.4,70.9,30.13,North,4,0.0,5.0,70,0.00,,,0.00,WUHU216DAVISVP2,2013-08-21 17:06:00,
2013-08-21 13:11:00,81.6,70.7,30.13,North,4,1.0,5.0,69,0.00,,,0.00,WUHU216DAVISVP2,2013-08-21 17:11:00,
2013-08-21 13:16:00,81.6,70.3,30.12,North,8,0.0,5.0,68,0.00,,,0.00,WUHU216DAVISVP2,2013-08-21 17:16:00,
2013-08-21 13:21:00,81.4,71.3,30.12,North,8,0.0,4.0,71,0.00,,,0.00,WUHU216DAVISVP2,2013-08-21 17:21:00,
2013-08-21 13:26:00,81.6,70.7,30.12,North,8,0.0,3.0,69,0.00,,,0.00,WUHU216DAVISVP2,2013-08-21 17:26:00,
2013-08-21 13:31:00,82.2,71.4,30.12,North,8,1.0,3.0,70,0.00,,,0.00,WUHU216DAVISVP2,2013-08-21 17:31:00,
2013-08-21 13:36:00,82.6,71.8,30.11,North,8,0.0,2.0,70,0.00,,,0.00,WUHU216DAVISVP2,2013-08-21 17:36:00,
2013-08-21 13:41:00,82.4,71.2,30.11,North,8,0.0,2.0,69,0.00,,,0.00,WUHU216DAVISVP2,2013-08-21 17:41:00,
2013-08-21 13:46:00,82.2,71.0,30.12,NW,308,4.0,6.0,69,0.00,,,0.00,WUHU216DAVISVP2,2013-08-21 17:46:00,
2013-08-21 13:51:00,81.9,71.4,30.12,NNW,335,4.0,8.0,70,0.00,,,0.00,WUHU216DAVISVP2,2013-08-21 17:51:00,
2013-08-21 13:56:00,81.5,71.4,30.11,NNW,345,5.0,8.0,71,0.00,,,0.00,WUHU216DAVISVP2,2013-08-21 17:56:00,
2013-08-21 14:01:00,81.4,71.7,30.11,North,354,3.0,8.0,72,0.00,,,0.00,WUHU216DAVISVP2,2013-08-21 18:01:00,
2013-08-21 14:06:00,81.3,70.8,30.11,NW,318,5.0,8.0,70,0.00,,,0.00,WUHU216DAVISVP2,2013-08-21 18:06:00,
2013-08-21 14:11:00,81.0,71.3,30.11,NW,324,6.0,8.0,72,0.00,,,0.00,WUHU216DAVISVP2,2013-08-21 18:11:00,
2013-08-21 14:16:00,80.8,71.1,30.11,NW,318,4.0,8.0,72,0.00,,,0.00,WUHU216DAVISVP2,2013-08-21 18:16:00,
2013-08-21 14:21:00,80.9,71.2,30.11,NNW,344,1.0,8.0,72,0.00,,,0.00,WUHU216DAVISVP2,2013-08-21 18:21:00,
2013-08-21 14:26:00,81.0,71.3,30.11,NNW,330,5.0,8.0,72,0.00,,,0.00,WUHU216DAVISVP2,2013-08-21 18:26:00,
2013-08-21 14:31:00,81.1,71.4,30.11,West,264,4.0,6.0,72,0.00,,,0.00,WUHU216DAVISVP2,2013-08-21 18:31:00,
2013-08-21 14:36:00,80.9,71.6,30.11,NNW,337,0.0,6.0,73,0.00,,,0.00,WUHU216DAVISVP2,2013-08-21 18:36:00,
2013-08-21 14:41:00,81.0,72.1,30.11,NNW,341,3.0,6.0,74,0.00,,,0.00,WUHU216DAVISVP2,2013-08-21 18:41:00,
2013-08-21 14:46:00,80.9,71.2,30.10,NW,308,1.0,6.0,72,0.00,,,0.00,WUHU216DAVISVP2,2013-08-21 18:46:00,
2013-08-21 14:51:00,81.0,71.3,30.10,North,359,4.0,5.0,72,0.00,,,0.00,WUHU216DAVISVP2,2013-08-21 18:51:00,
2013-08-21 14:56:00,81.0,71.7,30.10,NW,318,2.0,5.0,73,0.00,,,0.00,WUHU216DAVISVP2,2013-08-21 18:56:00,
2013-08-21 15:01:00,81.0,71.3,30.10,NNW,339,2.0,6.0,72,0.00,,,0.00,WUHU216DAVISVP2,2013-08-21 19:01:00,
2013-08-21 15:06:00,81.2,71.5,30.09,NNW,334,1.0,8.0,72,0.00,,,0.00,WUHU216DAVISVP2,2013-08-21 19:06:00,
2013-08-21 15:11:00,81.6,72.3,30.09,NW,324,3.0,8.0,73,0.00,,,0.00,WUHU216DAVISVP2,2013-08-21 19:11:00,
2013-08-21 15:16:00,81.6,71.7,30.08,NNW,336,3.0,8.0,72,0.00,,,0.00,WUHU216DAVISVP2,2013-08-21 19:16:00,
2013-08-21 15:21:00,81.6,72.1,30.08,NW,322,4.0,8.0,73,0.00,,,0.00,WUHU216DAVISVP2,2013-08-21 19:21:00,
2013-08-21 15:26:00,81.7,72.2,30.08,NW,322,3.0,6.0,73,0.00,,,0.00,WUHU216DAVISVP2,2013-08-21 19:26:00,
2013-08-21 15:31:00,81.7,71.8,30.08,NNW,348,6.0,7.0,72,0.00,,,0.00,WUHU216DAVISVP2,2013-08-21 19:31:00,
2013-08-21 15:36:00,81.7,71.8,30.08,North,354,3.0,7.0,72,0.00,,,0.00,WUHU216DAVISVP2,2013-08-21 19:36:00,
2013-08-21 15:41:00,81.6,72.3,30.07,West,272,1.0,7.0,73,0.00,,,0.00,WUHU216DAVISVP2,2013-08-21 19:41:00,
2013-08-21 15:46:00,81.4,72.5,30.07,WNW,302,3.0,7.0,74,0.00,,,0.00,WUHU216DAVISVP2,2013-08-21 19:46:00,
2013-08-21 15:51:00,81.2,72.7,30.08,NW,308,1.0,6.0,75,0.00,,,0.00,WUHU216DAVISVP2,2013-08-21 19:51:00,
2013-08-21 15:56:00,81.1,72.2,30.08,NW,317,1.0,5.0,74,0.00,,,0.00,WUHU216DAVISVP2,2013-08-21 19:56:00,
2013-08-21 16:01:00,81.0,72.9,30.08,North,8,5.0,5.0,76,0.00,,,0.00,WUHU216DAVISVP2,2013-08-21 20:01:00,
2013-08-21 16:06:00,80.7,72.2,30.07,WNW,302,6.0,9.0,75,0.00,,,0.00,WUHU216DAVISVP2,2013-08-21 20:06:00,
2013-08-21 16:11:00,80.3,72.2,30.08,NNW,347,5.0,9.0,76,0.00,,,0.00,WUHU216DAVISVP2,2013-08-21 20:11:00,
2013-08-21 16:16:00,80.0,71.9,30.07,NNW,333,2.0,9.0,76,0.00,,,0.00,WUHU216DAVISVP2,2013-08-21 20:16:00,
2013-08-21 16:21:00,79.7,72.0,30.07,NW,326,1.0,9.0,77,0.00,,,0.00,WUHU216DAVISVP2,2013-08-21 20:21:00,
2013-08-21 16:26:00,79.5,71.8,30.07,NNW,347,3.0,7.0,77,0.00,,,0.00,WUHU216DAVISVP2,2013-08-21 20:26:00,
2013-08-21 16:31:00,79.2,71.9,30.07,North,4,2.0,7.0,78,0.00,,,0.00,WUHU216DAVISVP2,2013-08-21 20:31:00,
2013-08-21 16:36:00,79.0,72.1,30.07,NNW,327,3.0,7.0,79,0.00,,,0.00,WUHU216DAVISVP2,2013-08-21 20:36:00,
2013-08-21 16:41:00,79.1,72.2,30.07,West,272,1.0,7.0,79,0.00,,,0.00,WUHU216DAVISVP2,2013-08-21 20:41:00,
2013-08-21 16:46:00,79.3,72.3,30.07,NW,310,2.0,7.0,79,0.00,,,0.00,WUHU216DAVISVP2,2013-08-21 20:46:00,
2013-08-21 16:51:00,79.5,71.8,30.07,WNW,301,3.0,7.0,77,0.00,,,0.00,WUHU216DAVISVP2,2013-08-21 20:51:00,
2013-08-21 16:56:00,79.8,72.1,30.07,NW,321,2.0,7.0,77,0.00,,,0.00,WUHU216DAVISVP2,2013-08-21 20:56:00,
2013-08-21 17:01:00,80.0,71.9,30.07,North,359,1.0,6.0,76,0.00,,,0.00,WUHU216DAVISVP2,2013-08-21 21:01:00,
2013-08-21 17:06:00,80.1,71.3,30.07,NNW,340,1.0,6.0,74,0.00,,,0.00,WUHU216DAVISVP2,2013-08-21 21:06:00,
2013-08-21 17:11:00,80.3,72.2,30.07,NNW,340,1.0,5.0,76,0.00,,,0.00,WUHU216DAVISVP2,2013-08-21 21:11:00,
2013-08-21 17:16:00,80.6,72.9,30.07,East,89,3.0,5.0,77,0.00,,,0.00,WUHU216DAVISVP2,2013-08-21 21:16:00,
2013-08-21 17:21:00,80.5,72.8,30.07,East,93,0.0,6.0,77,0.00,,,0.00,WUHU216DAVISVP2,2013-08-21 21:21:00,
2013-08-21 17:26:00,80.4,72.9,30.07,East,93,0.0,6.0,78,0.00,,,0.00,WUHU216DAVISVP2,2013-08-21 21:26:00,
2013-08-21 17:31:00,80.1,72.6,30.07,ESE,109,0.0,6.0,78,0.00,,,0.00,WUHU216DAVISVP2,2013-08-21 21:31:00,
2013-08-21 17:36:00,79.8,72.3,30.07,SE,131,2.0,6.0,78,0.00,,,0.00,WUHU216DAVISVP2,2013-08-21 21:36:00,
2013-08-21 17:41:00,79.6,72.1,30.06,SW,223,1.0,6.0,78,0.00,,,0.00,WUHU216DAVISVP2,2013-08-21 21:41:00,
2013-08-21 17:46:00,79.2,70.6,30.06,SE,131,1.0,8.0,75,0.00,,,0.00,WUHU216DAVISVP2,2013-08-21 21:46:00,
2013-08-21 17:51:00,78.7,69.7,30.06,SE,129,4.0,8.0,74,0.00,,,0.00,WUHU216DAVISVP2,2013-08-21 21:51:00,
2013-08-21 17:56:00,78.2,68.4,30.06,SE,130,0.0,8.0,72,0.00,,,0.00,WUHU216DAVISVP2,2013-08-21 21:56:00,
2013-08-21 18:01:00,77.7,68.0,30.07,SE,131,0.0,8.0,72,0.00,,,0.00,WUHU216DAVISVP2,2013-08-21 22:01:00,
2013-08-21 18:06:00,77.3,67.2,30.07,ENE,78,0.0,7.0,71,0.00,,,0.00,WUHU216DAVISVP2,2013-08-21 22:06:00,
2013-08-21 18:11:00,77.0,67.7,30.07,West,267,0.0,3.0,73,0.00,,,0.00,WUHU216DAVISVP2,2013-08-21 22:11:00,
2013-08-21 18:16:00,76.8,68.3,30.06,West,278,1.0,3.0,75,0.00,,,0.00,WUHU216DAVISVP2,2013-08-21 22:16:00,
2013-08-21 18:21:00,76.4,69.4,30.07,WNW,297,2.0,6.0,79,0.01,,,0.01,WUHU216DAVISVP2,2013-08-21 22:21:00,
2013-08-21 18:26:00,75.4,69.9,30.08,NW,308,6.0,9.0,83,0.01,,,0.01,WUHU216DAVISVP2,2013-08-21 22:26:00,
2013-08-21 18:31:00,73.9,68.1,30.08,SW,230,3.0,10.0,82,0.01,,,0.01,WUHU216DAVISVP2,2013-08-21 22:31:00,
2013-08-21 18:36:00,72.6,66.8,30.08,NW,312,6.0,10.0,82,0.02,,,0.02,WUHU216DAVISVP2,2013-08-21 22:36:00,
2013-08-21 18:41:00,70.7,66.3,30.08,SSW,206,1.0,14.0,86,0.28,,,0.28,WUHU216DAVISVP2,2013-08-21 22:41:00,
2013-08-21 18:46:00,69.3,65.3,30.09,NW,320,5.0,14.0,87,0.41,,,0.41,WUHU216DAVISVP2,2013-08-21 22:46:00,
2013-08-21 18:51:00,68.0,64.6,30.09,NNW,337,0.0,14.0,89,0.51,,,0.51,WUHU216DAVISVP2,2013-08-21 22:51:00,
2013-08-21 18:56:00,67.4,64.7,30.09,NNW,337,0.0,14.0,91,0.55,,,0.55,WUHU216DAVISVP2,2013-08-21 22:56:00,
2013-08-21 19:01:00,66.8,64.4,30.10,WSW,247,3.0,8.0,92,0.57,,,0.57,WUHU216DAVISVP2,2013-08-21 23:01:00,
2013-08-21 19:06:00,66.4,64.3,30.09,West,269,1.0,4.0,93,0.57,,,0.57,WUHU216DAVISVP2,2013-08-21 23:06:00,
2013-08-21 19:11:00,66.1,64.3,30.09,East,86,1.0,4.0,94,0.58,,,0.58,WUHU216DAVISVP2,2013-08-21 23:11:00,
2013-08-21 19:16:00,66.1,64.6,30.09,NNE,31,1.0,4.0,95,0.58,,,0.58,WUHU216DAVISVP2,2013-08-21 23:16:00,
2013-08-21 19:21:00,66.0,64.5,30.09,NNE,32,0.0,3.0,95,0.58,,,0.59,WUHU216DAVISVP2,2013-08-21 23:21:00,
2013-08-21 19:26:00,65.9,64.4,30.09,NNE,32,0.0,3.0,95,0.58,,,0.59,WUHU216DAVISVP2,2013-08-21 23:26:00,
2013-08-21 19:31:00,65.9,64.4,30.09,ESE,109,0.0,3.0,95,0.58,,,0.59,WUHU216DAVISVP2,2013-08-21 23:31:00,
2013-08-21 19:36:00,65.8,64.6,30.09,ESE,112,2.0,3.0,96,0.55,,,0.59,WUHU216DAVISVP2,2013-08-21 23:36:00,
2013-08-21 19:41:00,65.8,64.6,30.09,ENE,69,1.0,3.0,96,0.31,,,0.59,WUHU216DAVISVP2,2013-08-21 23:41:00,
2013-08-21 19:46:00,65.8,64.6,30.09,NNE,28,1.0,3.0,96,0.18,,,0.59,WUHU216DAVISVP2,2013-08-21 23:46:00,
2013-08-21 19:51:00,65.7,64.5,30.09,NNE,28,0.0,3.0,96,0.09,,,0.60,WUHU216DAVISVP2,2013-08-21 23:51:00,
2013-08-21 19:56:00,65.7,64.8,30.08,NNW,341,0.0,3.0,97,0.05,,,0.60,WUHU216DAVISVP2,2013-08-21 23:56:00,
2013-08-21 20:01:00,65.8,64.9,30.09,NNW,330,5.0,5.0,97,0.03,,,0.60,WUHU216DAVISVP2,2013-08-22 00:01:00,
2013-08-21 20:06:00,65.7,64.8,30.09,WSW,240,2.0,5.0,97,0.03,,,0.60,WUHU216DAVISVP2,2013-08-22 00:06:00,
2013-08-21 20:11:00,65.5,64.3,30.09,NW,304,1.0,5.0,96,0.02,,,0.60,WUHU216DAVISVP2,2013-08-22 00:11:00,
2013-08-21 20:16:00,65.4,64.5,30.08,NW,315,2.0,5.0,97,0.02,,,0.60,WUHU216DAVISVP2,2013-08-22 00:16:00,
2013-08-21 20:21:00,65.4,64.5,30.08,NW,320,0.0,5.0,97,0.01,,,0.60,WUHU216DAVISVP2,2013-08-22 00:21:00,
2013-08-21 20:26:00,65.3,64.4,30.07,NW,320,0.0,4.0,97,0.02,,,0.61,WUHU216DAVISVP2,2013-08-22 00:26:00,
2013-08-21 20:31:00,65.3,64.4,30.07,NW,320,0.0,4.0,97,0.02,,,0.61,WUHU216DAVISVP2,2013-08-22 00:31:00,
2013-08-21 20:36:00,65.2,64.3,30.07,NW,320,0.0,4.0,97,0.02,,,0.61,WUHU216DAVISVP2,2013-08-22 00:36:00,
2013-08-21 20:41:00,65.2,64.3,30.08,NW,320,1.0,3.0,97,0.02,,,0.61,WUHU216DAVISVP2,2013-08-22 00:41:00,
2013-08-21 20:46:00,65.2,64.3,30.09,NW,320,0.0,3.0,97,0.02,,,0.61,WUHU216DAVISVP2,2013-08-22 00:46:00,
2013-08-21 20:51:00,65.2,64.3,30.09,NW,320,0.0,3.0,97,0.02,,,0.62,WUHU216DAVISVP2,2013-08-22 00:51:00,
2013-08-21 20:56:00,65.1,64.2,30.09,NW,320,0.0,3.0,97,0.02,,,0.62,WUHU216DAVISVP2,2013-08-22 00:56:00,
2013-08-21 21:01:00,65.1,64.2,30.09,NW,320,0.0,2.0,97,0.03,,,0.63,WUHU216DAVISVP2,2013-08-22 01:01:00,
2013-08-21 21:06:00,65.0,64.1,30.09,NW,322,1.0,1.0,97,0.03,,,0.63,WUHU216DAVISVP2,2013-08-22 01:06:00,
2013-08-21 21:11:00,65.1,64.2,30.09,ENE,70,0.0,2.0,97,0.03,,,0.63,WUHU216DAVISVP2,2013-08-22 01:11:00,
2013-08-21 21:16:00,65.2,64.6,30.09,ENE,70,0.0,2.0,98,0.04,,,0.64,WUHU216DAVISVP2,2013-08-22 01:16:00,
2013-08-21 21:21:00,65.2,64.6,30.09,NW,316,1.0,3.0,98,0.05,,,0.65,WUHU216DAVISVP2,2013-08-22 01:21:00,
2013-08-21 21:26:00,65.2,64.6,30.09,NW,316,0.0,3.0,98,0.04,,,0.65,WUHU216DAVISVP2,2013-08-22 01:26:00,
2013-08-21 21:31:00,65.2,64.6,30.09,NW,316,0.0,3.0,98,0.04,,,0.65,WUHU216DAVISVP2,2013-08-22 01:31:00,
2013-08-21 21:36:00,65.3,64.7,30.09,NW,316,0.0,3.0,98,0.04,,,0.65,WUHU216DAVISVP2,2013-08-22 01:36:00,
2013-08-21 21:41:00,65.2,64.6,30.08,NW,316,0.0,2.0,98,0.04,,,0.65,WUHU216DAVISVP2,2013-08-22 01:41:00,
2013-08-21 21:46:00,65.2,64.6,30.08,NW,316,0.0,2.0,98,0.04,,,0.65,WUHU216DAVISVP2,2013-08-22 01:46:00,
2013-08-21 21:51:00,65.2,64.6,30.08,NW,316,0.0,2.0,98,0.03,,,0.65,WUHU216DAVISVP2,2013-08-22 01:51:00,
2013-08-21 21:56:00,65.2,64.6,30.07,NW,316,0.0,2.0,98,0.03,,,0.65,WUHU216DAVISVP2,2013-08-22 01:56:00,
2013-08-21 22:01:00,65.2,64.6,30.07,NW,316,0.0,2.0,98,0.03,,,0.66,WUHU216DAVISVP2,2013-08-22 02:01:00,
2013-08-21 22:06:00,65.2,64.6,30.07,NW,316,0.0,2.0,98,0.03,,,0.66,WUHU216DAVISVP2,2013-08-22 02:06:00,
2013-08-21 22:11:00,65.0,64.4,30.08,NW,324,2.0,5.0,98,0.03,,,0.66,WUHU216DAVISVP2,2013-08-22 02:11:00,
2013-08-21 22:16:00,65.0,64.4,30.08,NW,310,5.0,5.0,98,0.02,,,0.66,WUHU216DAVISVP2,2013-08-22 02:16:00,
2013-08-21 22:21:00,64.9,64.3,30.07,NW,307,0.0,5.0,98,0.01,,,0.66,WUHU216DAVISVP2,2013-08-22 02:21:00,
2013-08-21 22:26:00,64.8,64.2,30.08,NW,326,4.0,5.0,98,0.01,,,0.66,WUHU216DAVISVP2,2013-08-22 02:26:00,
2013-08-21 22:31:00,64.8,64.2,30.08,NNW,333,0.0,5.0,98,0.01,,,0.66,WUHU216DAVISVP2,2013-08-22 02:31:00,
2013-08-21 22:36:00,64.7,64.1,30.08,NNW,335,2.0,5.0,98,0.01,,,0.66,WUHU216DAVISVP2,2013-08-22 02:36:00,
2013-08-21 22:41:00,64.8,64.2,30.08,NNW,341,0.0,5.0,98,0.01,,,0.66,WUHU216DAVISVP2,2013-08-22 02:41:00,
2013-08-21 22:46:00,64.7,64.1,30.08,NNW,341,0.0,4.0,98,0.01,,,0.66,WUHU216DAVISVP2,2013-08-22 02:46:00,
2013-08-21 22:51:00,64.8,64.2,30.08,NNW,341,0.0,3.0,98,0.01,,,0.66,WUHU216DAVISVP2,2013-08-22 02:51:00,
2013-08-21 22:56:00,64.8,64.2,30.08,NNW,341,1.0,2.0,98,0.01,,,0.66,WUHU216DAVISVP2,2013-08-22 02:56:00,
2013-08-21 23:01:00,64.9,64.3,30.09,NNW,341,0.0,2.0,98,0.00,,,0.66,WUHU216DAVISVP2,2013-08-22 03:01:00,
2013-08-21 23:06:00,64.9,64.3,30.09,NNW,341,1.0,2.0,98,0.00,,,0.66,WUHU216DAVISVP2,2013-08-22 03:06:00,
2013-08-21 23:11:00,65.0,64.4,30.08,NNW,341,0.0,2.0,98,0.00,,,0.66,WUHU216DAVISVP2,2013-08-22 03:11:00,
2013-08-21 23:16:00,65.1,64.5,30.08,NNW,341,0.0,2.0,98,0.00,,,0.66,WUHU216DAVISVP2,2013-08-22 03:16:00,
2013-08-21 23:21:00,65.1,64.5,30.09,NNW,341,0.0,2.0,98,0.00,,,0.66,WUHU216DAVISVP2,2013-08-22 03:21:00,
2013-08-21 23:26:00,65.1,64.5,30.08,NNW,341,0.0,2.0,98,0.00,,,0.66,WUHU216DAVISVP2,2013-08-22 03:26:00,
2013-08-21 23:31:00,65.0,64.4,30.09,NNW,341,0.0,0.0,98,0.00,,,0.66,WUHU216DAVISVP2,2013-08-22 03:31:00,
2013-08-21 23:36:00,65.0,64.4,30.09,NNW,341,0.0,0.0,98,0.00,,,0.66,WUHU216DAVISVP2,2013-08-22 03:36:00,
2013-08-21 23:41:00,65.0,64.4,30.09,NNW,341,0.0,0.0,98,0.00,,,0.66,WUHU216DAVISVP2,2013-08-22 03:41:00,
2013-08-21 23:46:00,65.0,64.4,30.09,NNW,341,0.0,0.0,98,0.00,,,0.66,WUHU216DAVISVP2,2013-08-22 03:46:00,
2013-08-21 23:51:00,64.9,64.3,30.09,NNW,341,0.0,0.0,98,0.00,,,0.66,WUHU216DAVISVP2,2013-08-22 03:51:00,
2013-08-21 23:56:00,64.9,64.3,30.09,NNW,341,0.0,0.0,98,0.00,,,0.66,WUHU216DAVISVP2,2013-08-22 03:56:00,